Time;durP1;ratioP1;P1;durP2;ratioP2;P2;SDS_P1;SDS_P2;PMS_P1;PMS_P2;Temp;Humidity;BMP_temperature;BMP_pressure;BME280_temperature;BME280_humidity;BME280_pressure;Samples;Min_cycle;Max_cycle;Signal;HPM_P1;HPM_P2
2022/10/13 03:02:39;;;;;;;3.60;3.20;;;21.10;49.00;;;;;;1835788;23;45727;-63
2022/10/13 03:05:05;;;;;;;3.72;2.97;;;21.00;48.90;;;;;;4895730;28;45309;-63
2022/10/13 03:07:30;;;;;;;3.47;3.17;;;21.10;49.00;;;;;;4897431;28;45340;-63
2022/10/13 03:09:56;;;;;;;4.55;3.30;;;21.10;48.90;;;;;;4905680;28;46347;-62
2022/10/13 03:12:22;;;;;;;3.50;3.17;;;21.10;48.90;;;;;;4895776;28;45247;-63
2022/10/13 03:14:47;;;;;;;3.85;2.78;;;21.00;48.90;;;;;;4880352;29;45362;-63
2022/10/13 03:17:13;;;;;;;3.50;2.70;;;21.00;48.90;;;;;;4895425;28;45721;-63
2022/10/13 03:19:39;;;;;;;3.88;2.88;;;21.00;48.90;;;;;;4898185;28;46040;-63
2022/10/13 03:22:04;;;;;;;3.22;2.90;;;21.00;48.90;;;;;;4897563;29;45406;-62
2022/10/13 03:24:30;;;;;;;3.50;2.92;;;21.00;48.90;;;;;;4891687;28;45278;-63
2022/10/13 03:26:55;;;;;;;3.53;3.10;;;21.00;48.90;;;;;;4876058;29;45469;-62
2022/10/13 03:29:22;;;;;;;4.28;2.70;;;21.00;48.90;;;;;;4879004;29;47000;-65
2022/10/13 03:31:47;;;;;;;3.92;3.38;;;21.00;48.80;;;;;;4896331;28;45258;-63
2022/10/13 03:34:14;;;;;;;3.15;2.80;;;21.00;48.90;;;;;;4874748;28;45446;-62
2022/10/13 03:36:40;;;;;;;3.28;2.97;;;21.00;48.80;;;;;;4890607;28;45495;-63
2022/10/13 03:39:05;;;;;;;4.43;3.38;;;21.00;48.90;;;;;;4877416;29;46085;-62
2022/10/13 03:41:31;;;;;;;6.05;3.33;;;21.00;48.90;;;;;;4894326;28;45508;-63
2022/10/13 03:43:57;;;;;;;3.33;2.88;;;21.00;48.90;;;;;;4873294;29;44810;-62
2022/10/13 03:46:23;;;;;;;3.85;3.30;;;21.00;49.00;;;;;;4898523;28;45357;-63
2022/10/13 03:48:49;;;;;;;3.83;2.85;;;21.00;48.90;;;;;;4860619;29;46112;-62
2022/10/13 03:51:16;;;;;;;3.80;2.67;;;21.00;48.90;;;;;;4890765;28;44759;-62
2022/10/13 03:53:42;;;;;;;3.03;2.72;;;21.00;48.90;;;;;;4875130;28;45892;-61
2022/10/13 03:56:10;;;;;;;3.85;2.88;;;21.00;48.90;;;;;;4894340;28;45490;-63
2022/10/13 03:58:36;;;;;;;3.30;2.80;;;21.00;48.90;;;;;;4858223;29;46117;-62
2022/10/13 04:01:03;;;;;;;3.67;3.08;;;21.00;48.90;;;;;;4889665;28;45045;-63
2022/10/13 04:03:29;;;;;;;4.15;3.17;;;21.00;48.90;;;;;;4875463;28;45235;-63
2022/10/13 04:05:57;;;;;;;3.53;3.05;;;20.90;48.90;;;;;;4888836;28;45705;-63
2022/10/13 04:08:23;;;;;;;3.45;2.97;;;21.00;49.00;;;;;;4872579;28;46064;-63
2022/10/13 04:10:56;;;;;;;3.47;2.80;;;21.00;48.90;;;;;;4888676;28;45343;-62
2022/10/13 04:13:22;;;;;;;3.35;2.63;;;21.00;48.90;;;;;;4877896;29;44691;-63
2022/10/13 04:15:47;;;;;;;3.22;2.80;;;20.90;48.90;;;;;;4892429;28;45700;-62
2022/10/13 04:18:13;;;;;;;4.25;3.30;;;20.90;48.90;;;;;;4895381;28;47006;-62
2022/10/13 04:20:39;;;;;;;4.07;2.97;;;20.90;48.90;;;;;;4893539;28;46291;-62
2022/10/13 04:23:05;;;;;;;3.67;3.25;;;20.90;48.90;;;;;;4896097;29;45479;-63
2022/10/13 04:25:35;;;;;;;4.78;3.20;;;20.90;49.00;;;;;;4878044;29;45595;-63
2022/10/13 04:28:01;;;;;;;3.30;2.90;;;20.90;49.00;;;;;;4876552;28;47007;-62
2022/10/13 04:30:26;;;;;;;3.55;3.00;;;20.90;49.00;;;;;;4893594;28;45083;-63
2022/10/13 04:32:52;;;;;;;4.07;2.95;;;20.90;49.00;;;;;;4894058;28;45436;-64
2022/10/13 04:35:18;;;;;;;3.75;2.92;;;20.90;49.00;;;;;;4890375;28;45799;-62
2022/10/13 04:37:43;;;;;;;6.03;3.20;;;20.90;49.00;;;;;;4895513;28;45878;-64
2022/10/13 04:40:09;;;;;;;3.20;2.90;;;20.90;48.90;;;;;;4899638;28;45327;-64
2022/10/13 04:42:35;;;;;;;4.78;3.13;;;21.00;48.90;;;;;;4892445;28;45656;-64
2022/10/13 04:45:00;;;;;;;3.53;3.13;;;21.00;48.90;;;;;;4875592;29;44950;-62
2022/10/13 04:47:26;;;;;;;3.10;2.80;;;21.00;48.90;;;;;;4893414;28;45493;-62
2022/10/13 04:49:51;;;;;;;3.85;3.38;;;21.00;48.90;;;;;;4889640;28;45282;-62
2022/10/13 04:52:17;;;;;;;4.68;3.00;;;21.00;48.90;;;;;;4892747;28;45495;-62
2022/10/13 04:54:43;;;;;;;3.25;2.78;;;21.00;48.90;;;;;;4871380;29;45606;-61
2022/10/13 04:57:08;;;;;;;3.45;3.10;;;21.00;48.90;;;;;;4892587;28;45279;-61
2022/10/13 04:59:34;;;;;;;3.63;3.17;;;21.00;48.90;;;;;;4892801;28;44688;-61
2022/10/13 05:02:00;;;;;;;3.33;3.05;;;21.00;48.90;;;;;;4891799;28;45153;-61
2022/10/13 05:04:26;;;;;;;4.13;3.05;;;21.10;49.00;;;;;;4893097;28;45255;-62
2022/10/13 05:06:51;;;;;;;3.00;2.70;;;21.10;49.00;;;;;;4893076;28;45886;-62
2022/10/13 05:09:17;;;;;;;3.47;3.00;;;21.10;48.90;;;;;;4893332;28;45171;-63
2022/10/13 05:11:43;;;;;;;3.33;3.00;;;21.10;48.90;;;;;;4893474;28;45573;-64
2022/10/13 05:14:09;;;;;;;3.40;3.05;;;21.10;48.90;;;;;;4894256;28;45026;-61
2022/10/13 05:16:34;;;;;;;4.18;3.08;;;21.10;48.90;;;;;;4892148;29;45365;-63
2022/10/13 05:19:00;;;;;;;3.15;2.83;;;21.10;48.90;;;;;;4891695;29;44989;-64
2022/10/13 05:21:27;;;;;;;3.53;2.88;;;21.10;48.80;;;;;;4892289;28;44994;-62
2022/10/13 05:23:54;;;;;;;3.15;2.63;;;21.10;48.90;;;;;;4875546;28;45398;-61
2022/10/13 05:26:21;;;;;;;3.38;2.85;;;21.20;48.90;;;;;;4872117;29;45639;-65
2022/10/13 05:28:47;;;;;;;4.78;3.40;;;21.20;48.90;;;;;;4873469;29;46061;-61
2022/10/13 05:31:17;;;;;;;3.97;3.40;;;21.10;48.80;;;;;;4870119;28;45051;-61
2022/10/13 05:33:43;;;;;;;5.28;3.15;;;21.10;48.90;;;;;;4865478;28;45450;-62
2022/10/13 05:36:11;;;;;;;4.65;3.40;;;21.10;48.90;;;;;;4895860;28;46201;-62
2022/10/13 05:38:37;;;;;;;3.72;2.80;;;21.10;48.90;;;;;;4879192;29;45034;-62
2022/10/13 05:41:12;;;;;;;3.15;2.80;;;21.10;48.90;;;;;;4898110;28;45213;-62
2022/10/13 05:43:39;;;;;;;3.15;2.72;;;21.10;49.00;;;;;;4882586;29;45536;-62
2022/10/13 05:46:04;;;;;;;3.28;2.85;;;21.00;48.90;;;;;;4896375;28;45497;-62
2022/10/13 05:48:30;;;;;;;3.42;2.80;;;21.00;49.00;;;;;;4896470;29;45166;-62
2022/10/13 05:50:58;;;;;;;4.28;2.88;;;21.00;49.00;;;;;;4897344;28;44768;-63
2022/10/13 05:53:24;;;;;;;3.13;2.83;;;21.00;49.00;;;;;;4895009;28;45404;-63
2022/10/13 05:55:50;;;;;;;3.85;3.13;;;21.00;49.00;;;;;;4880201;29;45481;-62
2022/10/13 05:58:16;;;;;;;3.10;2.80;;;21.00;49.00;;;;;;4864552;29;45529;-62
2022/10/13 06:00:41;;;;;;;4.07;3.05;;;21.00;49.00;;;;;;4852656;29;45371;-61
2022/10/13 06:03:18;;;;;;;7.32;4.70;;;21.00;49.10;;;;;;4880188;28;45429;-61
2022/10/13 06:05:46;;;;;;;11.15;7.57;;;21.00;48.70;;;;;;4877909;28;45532;-62
2022/10/13 06:08:14;;;;;;;12.85;9.10;;;20.90;48.50;;;;;;4881516;29;45530;-63
2022/10/13 06:10:41;;;;;;;15.75;10.13;;;20.80;49.00;;;;;;4879577;29;44970;-62
2022/10/13 06:13:06;;;;;;;16.75;11.20;;;20.70;48.40;;;;;;4874035;29;45414;-61
2022/10/13 06:15:32;;;;;;;19.52;11.15;;;20.50;48.60;;;;;;4875087;29;46085;-61
2022/10/13 06:17:58;;;;;;;17.38;11.10;;;20.30;48.90;;;;;;4896441;29;45363;-63
2022/10/13 06:20:23;;;;;;;18.13;11.18;;;20.10;49.20;;;;;;4879617;28;45469;-62
2022/10/13 06:22:49;;;;;;;16.35;12.30;;;20.00;49.50;;;;;;4886498;28;45336;-63
2022/10/13 06:25:15;;;;;;;19.13;11.73;;;19.90;49.80;;;;;;4878553;29;45055;-64
2022/10/13 06:27:41;;;;;;;16.83;11.52;;;19.80;50.10;;;;;;4876068;28;45522;-64
2022/10/13 06:30:07;;;;;;;13.32;9.40;;;19.80;50.10;;;;;;4857581;29;45482;-63
2022/10/13 06:32:33;;;;;;;13.90;9.10;;;19.80;50.20;;;;;;4896313;28;44736;-66
2022/10/13 06:34:58;;;;;;;11.52;8.57;;;19.90;50.00;;;;;;4901946;28;46235;-66
2022/10/13 06:37:24;;;;;;;13.18;8.13;;;20.10;49.70;;;;;;4895197;28;45425;-64
2022/10/13 06:39:49;;;;;;;12.48;7.35;;;20.40;49.30;;;;;;4894445;28;44788;-61
2022/10/13 06:42:15;;;;;;;8.82;6.80;;;20.70;49.00;;;;;;4895424;28;45519;-64
2022/10/13 06:44:41;;;;;;;10.40;6.32;;;20.90;48.60;;;;;;4895640;28;45141;-62
2022/10/13 06:47:06;;;;;;;12.10;6.07;;;21.00;48.20;;;;;;4896316;29;45813;-61
2022/10/13 06:49:32;;;;;;;9.40;5.80;;;21.20;48.10;;;;;;4883147;29;45251;-61
2022/10/13 06:51:58;;;;;;;7.32;5.57;;;21.30;47.90;;;;;;4899434;28;45210;-61
2022/10/13 06:54:26;;;;;;;5.95;4.82;;;21.50;47.80;;;;;;4900451;28;46153;-63
2022/10/13 06:56:52;;;;;;;13.68;5.55;;;21.60;47.60;;;;;;4899098;28;45290;-63
2022/10/13 06:59:18;;;;;;;7.63;4.70;;;21.70;47.50;;;;;;4897244;28;44977;-60
2022/10/13 07:01:43;;;;;;;8.10;4.85;;;21.80;47.40;;;;;;4882230;28;45589;-61
2022/10/13 07:04:09;;;;;;;5.57;4.15;;;21.90;47.30;;;;;;4897228;28;45962;-63
2022/10/13 07:06:34;;;;;;;4.85;4.00;;;22.00;47.20;;;;;;4879173;29;44997;-61
2022/10/13 07:09:06;;;;;;;7.50;4.57;;;22.10;47.20;;;;;;4900031;28;44839;-62
2022/10/13 07:11:32;;;;;;;4.35;3.75;;;22.30;47.00;;;;;;4864904;29;45492;-62
2022/10/13 07:13:57;;;;;;;6.70;3.63;;;22.40;47.00;;;;;;4901686;28;45954;-61
2022/10/13 07:16:23;;;;;;;4.45;3.88;;;22.50;46.80;;;;;;4903001;28;45275;-62
2022/10/13 07:18:49;;;;;;;5.72;3.63;;;22.60;46.70;;;;;;4883121;29;45181;-60
2022/10/13 07:21:15;;;;;;;4.32;3.60;;;22.70;46.50;;;;;;4899471;28;45222;-61
2022/10/13 07:23:40;;;;;;;5.50;3.53;;;22.80;46.40;;;;;;4896366;28;45322;-62
2022/10/13 07:26:07;;;;;;;4.65;3.90;;;22.90;46.30;;;;;;4898994;29;45353;-62
2022/10/13 07:28:33;;;;;;;5.97;3.65;;;23.00;46.30;;;;;;4880694;29;45221;-61
2022/10/13 07:30:58;;;;;;;4.80;3.75;;;23.10;46.30;;;;;;4896040;28;45997;-62
2022/10/13 07:33:24;;;;;;;7.53;3.65;;;23.20;46.10;;;;;;4897513;28;47017;-60
2022/10/13 07:35:49;;;;;;;3.80;3.22;;;23.30;46.10;;;;;;4903219;28;45267;-61
2022/10/13 07:38:15;;;;;;;5.40;3.50;;;23.40;46.00;;;;;;4887417;29;45152;-64
2022/10/13 07:40:41;;;;;;;3.58;3.28;;;23.50;45.90;;;;;;4893991;28;44909;-63
2022/10/13 07:43:06;;;;;;;4.28;3.17;;;23.60;45.90;;;;;;4896006;28;46062;-61
2022/10/13 07:45:32;;;;;;;5.03;3.22;;;23.60;45.70;;;;;;4898554;29;45383;-63
2022/10/13 07:47:57;;;;;;;6.60;3.13;;;23.70;45.60;;;;;;4893273;29;45066;-61
2022/10/13 07:50:23;;;;;;;4.25;3.50;;;23.80;45.60;;;;;;4898092;28;45238;-63
2022/10/13 07:52:48;;;;;;;5.55;3.15;;;23.80;45.50;;;;;;4895884;29;45483;-61
2022/10/13 07:55:14;;;;;;;3.83;3.05;;;23.90;45.40;;;;;;4879436;29;45219;-62
2022/10/13 07:57:39;;;;;;;3.65;2.88;;;24.00;45.30;;;;;;4897516;29;45452;-62
2022/10/13 08:00:05;;;;;;;4.35;3.25;;;24.00;45.20;;;;;;4889587;28;46441;-62
2022/10/13 08:02:31;;;;;;;5.20;3.78;;;24.10;45.20;;;;;;4894592;28;45248;-61
2022/10/13 08:04:57;;;;;;;5.07;3.13;;;24.10;45.20;;;;;;4901591;28;45344;-62
2022/10/13 08:07:23;;;;;;;3.90;2.78;;;24.10;45.10;;;;;;4886934;28;45232;-63
2022/10/13 08:09:48;;;;;;;4.30;3.10;;;24.20;45.00;;;;;;4870662;29;45603;-63
2022/10/13 08:12:14;;;;;;;3.15;2.65;;;24.20;45.00;;;;;;4896996;28;46147;-63
2022/10/13 08:14:41;;;;;;;4.40;2.90;;;24.30;45.00;;;;;;4890059;28;45469;-62
2022/10/13 08:17:06;;;;;;;3.25;2.70;;;24.30;44.90;;;;;;4889693;28;45366;-61
2022/10/13 08:19:32;;;;;;;3.40;3.05;;;24.40;44.90;;;;;;4893383;28;44959;-62
2022/10/13 08:21:57;;;;;;;3.00;2.70;;;24.40;44.80;;;;;;4873371;29;46043;-63
2022/10/13 08:24:23;;;;;;;3.10;2.70;;;24.40;44.80;;;;;;4890271;28;45525;-62
2022/10/13 08:26:49;;;;;;;3.63;3.25;;;24.50;44.80;;;;;;4897206;29;45215;-62
2022/10/13 08:29:15;;;;;;;3.83;2.72;;;24.50;44.80;;;;;;4870307;29;45197;-62
2022/10/13 08:31:41;;;;;;;3.60;2.65;;;24.60;44.70;;;;;;4878616;29;46121;-62
2022/10/13 08:34:07;;;;;;;3.38;2.60;;;24.60;44.60;;;;;;4878754;29;44732;-62
2022/10/13 08:36:33;;;;;;;3.10;2.80;;;24.70;44.60;;;;;;4890160;28;45464;-63
2022/10/13 08:38:59;;;;;;;2.97;2.50;;;24.80;44.50;;;;;;4905644;28;45299;-61
2022/10/13 08:41:27;;;;;;;3.92;2.47;;;24.80;44.40;;;;;;4877893;29;45608;-63
2022/10/13 08:43:57;;;;;;;3.95;2.80;;;24.80;44.30;;;;;;4880446;29;45553;-62
2022/10/13 08:46:28;;;;;;;3.30;3.00;;;24.90;44.10;;;;;;4883343;28;45243;-62
2022/10/13 08:48:54;;;;;;;2.50;2.30;;;25.00;44.00;;;;;;4858472;29;45162;-63
2022/10/13 08:51:20;;;;;;;2.90;2.60;;;25.00;44.10;;;;;;4875611;29;46206;-63
2022/10/13 08:53:46;;;;;;;3.22;2.45;;;25.00;44.00;;;;;;4871822;29;44630;-64
2022/10/13 08:56:21;;;;;;;3.70;2.58;;;25.10;44.00;;;;;;4899797;28;44955;-64
2022/10/13 08:58:48;;;;;;;4.57;2.78;;;25.10;43.70;;;;;;4879223;28;45187;-63
2022/10/13 09:01:18;;;;;;;4.15;3.00;;;25.20;44.00;;;;;;4875531;28;46161;-61
2022/10/13 09:03:54;;;;;;;3.15;2.50;;;25.20;43.80;;;;;;4893605;28;45140;-63
2022/10/13 09:06:20;;;;;;;3.28;2.70;;;25.20;43.60;;;;;;4893278;28;45351;-63
2022/10/13 09:08:53;;;;;;;3.38;2.53;;;25.20;43.90;;;;;;4890643;28;45117;-62
2022/10/13 09:11:18;;;;;;;3.45;2.50;;;25.20;43.70;;;;;;4880028;29;46082;-61
2022/10/13 09:13:44;;;;;;;3.10;2.63;;;25.30;43.80;;;;;;4888024;28;45259;-63
2022/10/13 09:16:09;;;;;;;3.13;2.47;;;25.30;43.70;;;;;;4904919;28;45252;-62
2022/10/13 09:18:36;;;;;;;3.63;2.58;;;25.30;43.70;;;;;;4894108;28;45499;-63
2022/10/13 09:21:17;;;;;;;2.63;2.40;;;25.40;43.70;;;;;;4872197;28;46122;-61
2022/10/13 09:23:43;;;;;;;3.60;2.60;;;25.40;43.30;;;;;;4875363;28;45833;-64
2022/10/13 09:26:12;;;;;;;3.22;2.70;;;25.40;43.60;;;;;;4878698;28;45494;-62
2022/10/13 09:28:38;;;;;;;3.58;2.53;;;25.50;43.60;;;;;;4860718;29;45404;-62
2022/10/13 09:31:22;;;;;;;5.55;2.42;;;25.50;43.60;;;;;;4878789;29;46078;-61
2022/10/13 09:33:57;;;;;;;2.90;2.60;;;25.50;43.30;;;;;;4875790;28;45531;-64
2022/10/13 09:36:22;;;;;;;3.33;2.35;;;25.50;43.30;;;;;;4877814;29;45069;-63
2022/10/13 09:39:14;;;;;;;4.20;2.47;;;25.50;43.50;;;;;;4897575;28;44831;-62
2022/10/13 09:41:42;;;;;;;2.40;2.20;;;25.60;43.10;;;;;;4890685;29;46385;-62
2022/10/13 09:44:16;;;;;;;5.10;2.72;;;25.60;43.30;;;;;;4875524;28;45169;-62
2022/10/13 09:46:48;;;;;;;2.15;1.95;;;25.70;43.30;;;;;;4859642;28;45516;-63
2022/10/13 09:49:36;;;;;;;2.45;2.25;;;25.60;43.20;;;;;;4879110;28;45592;-63
2022/10/13 09:52:20;;;;;;;3.00;2.13;;;25.70;43.10;;;;;;4890414;28;45321;-63
2022/10/13 09:54:55;;;;;;;3.08;2.13;;;25.70;42.90;;;;;;4875082;28;45506;-64
2022/10/13 09:57:47;;;;;;;4.07;2.58;;;25.70;43.10;;;;;;4896697;28;44909;-60
2022/10/13 10:00:20;;;;;;;4.88;2.53;;;25.80;42.90;;;;;;4880664;29;45245;-59
2022/10/13 10:03:18;;;;;;;3.58;2.45;;;25.80;43.20;;;;;;4872244;29;46377;-62
2022/10/13 10:05:49;;;;;;;3.10;2.35;;;25.80;43.00;;;;;;4887487;28;45845;-63
2022/10/13 10:08:35;;;;;;;2.53;2.08;;;25.70;43.20;;;;;;4867100;28;45424;-61
2022/10/13 10:11:02;;;;;;;4.18;1.95;;;25.70;43.00;;;;;;4874118;28;45801;-62
2022/10/13 10:13:27;;;;;;;3.00;2.30;;;25.70;43.30;;;;;;4871819;29;47203;-62
2022/10/13 10:16:18;;;;;;;2.72;2.20;;;25.70;43.30;;;;;;4872084;28;45162;-60
2022/10/13 10:19:12;;;;;;;3.83;2.05;;;25.80;43.10;;;;;;4873447;28;45976;-63
2022/10/13 10:22:36;;;;;;;2.10;1.90;;;25.80;43.00;;;;;;4894639;28;45275;-60
2022/10/13 10:25:16;;;;;;;2.13;1.90;;;25.80;42.80;;;;;;4800034;29;46072;-61
2022/10/13 10:27:44;;;;;;;2.20;2.00;;;25.80;43.20;;;;;;4796657;29;45736;-62
2022/10/13 10:30:19;;;;;;;2.00;1.75;;;25.80;43.30;;;;;;4848784;29;45567;-63
2022/10/13 10:33:00;;;;;;;2.75;2.03;;;25.80;43.00;;;;;;4895823;28;45287;-63
2022/10/13 10:35:41;;;;;;;3.55;1.70;;;25.80;43.00;;;;;;4877203;28;47075;-63
2022/10/13 10:38:25;;;;;;;2.88;2.10;;;25.80;43.00;;;;;;4875202;29;44708;-62
2022/10/13 10:41:05;;;;;;;2.08;1.80;;;25.80;43.00;;;;;;4873058;28;45431;-62
2022/10/13 10:43:40;;;;;;;2.28;1.75;;;25.90;43.00;;;;;;4895924;28;45512;-63
2022/10/13 10:46:12;;;;;;;2.20;1.90;;;25.90;43.00;;;;;;4895147;28;45563;-62
2022/10/13 10:48:38;;;;;;;2.30;2.10;;;25.90;43.10;;;;;;4874418;29;45661;-63
2022/10/13 10:51:07;;;;;;;2.05;1.73;;;25.90;43.20;;;;;;4895093;28;45339;-62
2022/10/13 10:53:51;;;;;;;2.47;2.08;;;25.90;43.10;;;;;;4862775;29;45752;-61
2022/10/13 10:56:38;;;;;;;1.95;1.70;;;25.90;42.80;;;;;;4892079;28;46230;-62
2022/10/13 10:59:40;;;;;;;1.65;1.52;;;25.90;42.70;;;;;;4894331;28;45247;-62
2022/10/13 11:02:22;;;;;;;2.40;1.58;;;25.90;42.70;;;;;;4890694;28;45570;-61
2022/10/13 11:04:48;;;;;;;2.25;1.77;;;26.00;43.00;;;;;;4877572;29;45460;-61
2022/10/13 11:07:23;;;;;;;2.00;1.80;;;25.90;43.00;;;;;;4871444;29;47031;-62
2022/10/13 11:09:51;;;;;;;2.67;1.88;;;25.90;42.90;;;;;;4891765;28;45285;-62
2022/10/13 11:12:22;;;;;;;3.42;1.90;;;25.80;43.10;;;;;;4892667;28;46007;-62
2022/10/13 11:14:53;;;;;;;2.50;1.85;;;25.80;43.20;;;;;;4873853;29;45392;-63
2022/10/13 11:17:38;;;;;;;3.35;1.50;;;25.70;43.20;;;;;;4890824;28;46391;-62
2022/10/13 11:20:19;;;;;;;2.40;1.65;;;25.70;43.50;;;;;;4892855;28;45299;-64
2022/10/13 11:23:13;;;;;;;2.05;1.85;;;25.60;43.40;;;;;;4892771;28;45425;-62
2022/10/13 11:25:39;;;;;;;3.20;2.08;;;25.60;43.40;;;;;;4874793;28;45486;-63
2022/10/13 11:28:25;;;;;;;2.50;1.85;;;25.50;43.70;;;;;;4892051;28;47153;-62
2022/10/13 11:30:55;;;;;;;3.40;1.80;;;25.50;43.60;;;;;;4893711;28;45674;-61
2022/10/13 11:33:39;;;;;;;2.30;1.73;;;25.40;43.80;;;;;;4873514;28;45028;-65
2022/10/13 11:36:29;;;;;;;3.13;1.98;;;25.40;43.70;;;;;;4894081;28;45854;-63
2022/10/13 11:39:26;;;;;;;3.53;2.30;;;25.40;43.70;;;;;;4890864;28;46260;-62
2022/10/13 11:42:10;;;;;;;2.22;1.85;;;25.30;43.80;;;;;;4891739;28;46326;-60
2022/10/13 11:44:54;;;;;;;4.25;2.28;;;25.30;43.90;;;;;;4893138;28;45477;-62
2022/10/13 11:47:57;;;;;;;2.30;1.90;;;25.30;43.90;;;;;;4894609;29;44763;-61
2022/10/13 11:50:56;;;;;;;5.28;1.80;;;25.20;43.90;;;;;;4894604;28;46206;-62
2022/10/13 11:53:26;;;;;;;2.72;1.98;;;25.20;43.90;;;;;;4888569;28;45700;-61
2022/10/13 11:55:56;;;;;;;4.10;2.00;;;25.10;44.10;;;;;;4893737;28;44690;-62
2022/10/13 11:58:25;;;;;;;4.20;1.85;;;25.10;44.10;;;;;;4873967;28;45794;-61
2022/10/13 12:01:02;;;;;;;4.07;1.85;;;25.00;44.20;;;;;;4891336;28;45716;-61
2022/10/13 12:03:29;;;;;;;2.10;1.88;;;25.00;44.30;;;;;;4893005;28;45390;-62
2022/10/13 12:06:06;;;;;;;3.17;1.90;;;25.00;44.30;;;;;;4894278;28;47020;-60
2022/10/13 12:08:33;;;;;;;4.18;2.00;;;25.00;44.30;;;;;;4874734;28;44745;-59
2022/10/13 12:11:01;;;;;;;3.35;2.00;;;24.90;44.40;;;;;;4886272;28;46161;-60
2022/10/13 12:13:28;;;;;;;2.28;1.90;;;24.90;44.40;;;;;;4856905;29;45520;-62
2022/10/13 12:16:05;;;;;;;4.28;1.90;;;24.90;44.50;;;;;;4891502;28;45282;-62
2022/10/13 12:18:38;;;;;;;2.33;2.10;;;24.90;44.50;;;;;;4876036;28;45674;-60
2022/10/13 12:21:16;;;;;;;1.92;1.73;;;24.80;44.50;;;;;;4872271;28;46321;-60
2022/10/13 12:23:41;;;;;;;2.13;1.80;;;24.80;44.60;;;;;;4893548;28;45720;-61
2022/10/13 12:26:11;;;;;;;2.35;1.88;;;24.80;44.70;;;;;;4893258;29;45356;-62
2022/10/13 12:28:59;;;;;;;2.15;1.75;;;24.70;44.70;;;;;;4858815;29;45482;-62
2022/10/13 12:31:42;;;;;;;2.35;1.85;;;24.70;44.70;;;;;;4870716;29;46224;-60
2022/10/13 12:34:29;;;;;;;2.20;2.00;;;24.70;44.80;;;;;;4868726;29;45315;-59
2022/10/13 12:37:00;;;;;;;2.35;1.80;;;24.70;44.90;;;;;;4885213;28;46232;-61
2022/10/13 12:39:27;;;;;;;1.90;1.70;;;24.70;44.90;;;;;;4867696;28;46223;-61
2022/10/13 12:41:53;;;;;;;2.78;1.95;;;24.60;44.90;;;;;;4868735;28;45668;-60
2022/10/13 12:44:20;;;;;;;3.88;2.10;;;24.60;44.90;;;;;;4852815;29;45303;-59
2022/10/13 12:46:57;;;;;;;1.70;1.60;;;24.60;45.00;;;;;;4855968;28;45324;-61
2022/10/13 12:49:41;;;;;;;2.35;1.90;;;24.60;45.10;;;;;;4886620;28;45673;-59
2022/10/13 12:52:13;;;;;;;2.25;1.70;;;24.50;45.10;;;;;;4887588;28;45189;-62
2022/10/13 12:54:45;;;;;;;2.22;2.03;;;24.50;45.70;;;;;;4868352;29;45615;-60
2022/10/13 12:57:26;;;;;;;4.68;2.08;;;24.50;45.20;;;;;;4883721;28;45346;-61
2022/10/13 12:59:51;;;;;;;1.98;1.80;;;24.50;45.30;;;;;;4856008;28;45317;-61
2022/10/13 13:02:23;;;;;;;3.38;2.13;;;24.40;45.30;;;;;;4887898;28;46855;-61
2022/10/13 13:04:49;;;;;;;2.43;1.90;;;24.40;45.30;;;;;;4888370;28;45276;-60
2022/10/13 13:07:24;;;;;;;2.03;1.83;;;24.40;45.30;;;;;;4869158;29;44719;-60
2022/10/13 13:10:05;;;;;;;2.30;2.03;;;24.40;45.40;;;;;;4882024;28;46221;-60
2022/10/13 13:12:31;;;;;;;2.05;1.77;;;24.40;45.50;;;;;;4888557;28;46716;-59
2022/10/13 13:14:56;;;;;;;4.80;1.90;;;24.30;45.40;;;;;;4890992;28;45429;-58
2022/10/13 13:17:31;;;;;;;2.10;1.90;;;24.40;45.50;;;;;;4892607;28;45444;-61
2022/10/13 13:19:57;;;;;;;3.38;1.90;;;24.30;45.60;;;;;;4868838;28;46207;-63
2022/10/13 13:22:23;;;;;;;2.03;1.83;;;24.30;45.60;;;;;;4889382;28;46876;-63
2022/10/13 13:24:50;;;;;;;2.38;1.95;;;24.30;45.60;;;;;;4890075;28;45407;-63
2022/10/13 13:27:16;;;;;;;2.33;1.83;;;24.30;45.70;;;;;;4868007;29;45048;-63
2022/10/13 13:29:42;;;;;;;2.63;2.10;;;24.30;45.70;;;;;;4889489;28;45694;-61
2022/10/13 13:32:12;;;;;;;2.03;1.83;;;24.20;45.70;;;;;;4889545;28;46201;-61
2022/10/13 13:34:37;;;;;;;2.38;2.05;;;24.20;45.70;;;;;;4869716;28;45320;-61
2022/10/13 13:37:03;;;;;;;1.73;1.63;;;24.20;45.80;;;;;;4871054;28;44809;-61
2022/10/13 13:39:28;;;;;;;2.10;1.90;;;24.20;45.80;;;;;;4890747;28;45656;-63
2022/10/13 13:41:54;;;;;;;2.22;1.90;;;24.20;45.80;;;;;;4892354;29;45940;-62
2022/10/13 13:44:19;;;;;;;2.10;1.80;;;24.10;45.90;;;;;;4888148;28;45754;-62
2022/10/13 13:46:45;;;;;;;2.22;1.52;;;24.10;45.90;;;;;;4881214;28;45390;-62
2022/10/13 13:49:10;;;;;;;1.70;1.60;;;24.10;45.90;;;;;;4885832;28;45646;-62
2022/10/13 13:51:36;;;;;;;2.28;1.98;;;24.10;45.90;;;;;;4866606;29;46224;-62
2022/10/13 13:54:02;;;;;;;2.88;2.00;;;24.10;45.90;;;;;;4887220;28;45283;-63
2022/10/13 13:56:28;;;;;;;2.30;1.85;;;24.10;45.90;;;;;;4881628;28;45758;-63
2022/10/13 13:58:53;;;;;;;2.05;1.83;;;24.10;45.90;;;;;;4890732;28;45752;-62
2022/10/13 14:01:19;;;;;;;2.55;1.70;;;24.10;45.90;;;;;;4888761;28;45390;-62
2022/10/13 14:03:44;;;;;;;2.35;1.75;;;24.00;45.90;;;;;;4889595;28;45370;-63
2022/10/13 14:06:16;;;;;;;3.58;2.00;;;24.10;46.00;;;;;;4892397;28;44749;-61
2022/10/13 14:08:42;;;;;;;2.95;1.90;;;24.00;46.00;;;;;;4890300;28;46424;-62
2022/10/13 14:11:08;;;;;;;2.40;1.70;;;24.00;46.00;;;;;;4892805;28;45865;-63
2022/10/13 14:13:33;;;;;;;2.55;1.75;;;24.00;46.00;;;;;;4891996;29;46199;-62
2022/10/13 14:15:59;;;;;;;2.78;2.10;;;24.00;46.00;;;;;;4870218;28;45357;-61
2022/10/13 14:18:25;;;;;;;3.67;1.73;;;24.00;46.10;;;;;;4890514;28;45214;-62
2022/10/13 14:20:50;;;;;;;2.20;2.00;;;24.00;46.20;;;;;;4892765;28;45360;-61
2022/10/13 14:23:16;;;;;;;2.25;2.05;;;23.90;46.10;;;;;;4892435;28;45568;-61
2022/10/13 14:25:42;;;;;;;2.83;2.35;;;23.90;46.10;;;;;;4891406;28;45884;-63
2022/10/13 14:28:07;;;;;;;2.00;1.75;;;23.90;46.20;;;;;;4852469;29;47446;-62
2022/10/13 14:30:33;;;;;;;2.20;1.75;;;23.90;46.20;;;;;;4880536;28;45843;-63
2022/10/13 14:32:59;;;;;;;5.65;2.05;;;23.90;46.20;;;;;;4887777;28;44849;-62
2022/10/13 14:35:24;;;;;;;2.47;2.08;;;23.80;46.20;;;;;;4892487;28;45657;-64
2022/10/13 14:37:50;;;;;;;1.85;1.60;;;23.90;46.20;;;;;;4891854;28;46334;-64
2022/10/13 14:40:16;;;;;;;2.03;1.80;;;23.80;46.60;;;;;;4872853;28;45949;-63
2022/10/13 14:42:41;;;;;;;3.97;1.90;;;23.80;46.20;;;;;;4869117;29;45263;-62
2022/10/13 14:45:07;;;;;;;1.85;1.67;;;23.80;46.30;;;;;;4887875;28;45220;-63
2022/10/13 14:47:33;;;;;;;1.70;1.60;;;23.80;46.30;;;;;;4889640;28;45592;-63
2022/10/13 14:50:00;;;;;;;2.00;1.70;;;23.80;46.40;;;;;;4887885;28;45872;-62
2022/10/13 14:52:26;;;;;;;1.95;1.73;;;23.80;46.40;;;;;;4891409;28;46448;-62
2022/10/13 14:54:51;;;;;;;3.05;1.95;;;23.80;46.40;;;;;;4891040;28;45331;-63
2022/10/13 14:57:17;;;;;;;3.40;1.70;;;23.80;46.40;;;;;;4891522;28;45258;-62
2022/10/13 14:59:43;;;;;;;1.88;1.70;;;23.70;46.40;;;;;;4870423;29;45867;-63
2022/10/13 15:02:12;;;;;;;2.03;1.70;;;23.70;46.40;;;;;;4887812;28;45465;-62
2022/10/13 15:04:37;;;;;;;2.58;1.88;;;23.70;46.50;;;;;;4888932;28;45258;-62
2022/10/13 15:07:03;;;;;;;1.75;1.58;;;23.70;46.50;;;;;;4872780;28;45673;-62
2022/10/13 15:09:29;;;;;;;2.42;1.60;;;23.70;46.50;;;;;;4889856;28;45767;-62
2022/10/13 15:11:54;;;;;;;2.03;1.83;;;23.70;46.50;;;;;;4890653;28;45342;-62
2022/10/13 15:14:20;;;;;;;2.83;1.92;;;23.70;46.60;;;;;;4886959;28;45292;-65
2022/10/13 15:16:45;;;;;;;2.58;1.90;;;23.70;46.60;;;;;;4879052;28;45816;-63
2022/10/13 15:19:11;;;;;;;2.53;1.70;;;23.60;46.70;;;;;;4887294;28;46004;-62
2022/10/13 15:21:36;;;;;;;1.52;1.33;;;23.60;46.70;;;;;;4886640;28;45566;-63
2022/10/13 15:24:02;;;;;;;1.77;1.63;;;23.60;46.70;;;;;;4885601;28;45836;-63
2022/10/13 15:26:28;;;;;;;1.60;1.40;;;23.60;46.70;;;;;;4886484;28;45097;-61
2022/10/13 15:28:53;;;;;;;2.08;1.83;;;23.50;46.70;;;;;;4886423;28;46151;-62
2022/10/13 15:31:20;;;;;;;2.38;1.98;;;23.50;46.70;;;;;;4887578;28;45613;-63
2022/10/13 15:33:47;;;;;;;1.98;1.77;;;23.50;46.80;;;;;;4886541;28;46344;-64
2022/10/13 15:36:13;;;;;;;3.88;2.10;;;23.50;46.80;;;;;;4870164;28;45071;-62
2022/10/13 15:38:38;;;;;;;2.78;2.03;;;23.40;46.80;;;;;;4887779;28;45366;-61
2022/10/13 15:41:04;;;;;;;2.08;1.88;;;23.40;46.80;;;;;;4889017;28;45590;-61
2022/10/13 15:43:30;;;;;;;4.15;1.92;;;23.40;47.50;;;;;;4869613;29;45719;-60
2022/10/13 15:46:00;;;;;;;2.13;1.85;;;23.40;46.90;;;;;;4887833;28;45106;-62
2022/10/13 15:48:25;;;;;;;2.22;1.83;;;23.30;46.90;;;;;;4868606;29;46157;-63
2022/10/13 15:50:51;;;;;;;2.47;2.20;;;23.30;47.00;;;;;;4887836;28;46103;-62
2022/10/13 15:53:17;;;;;;;2.03;1.85;;;23.30;47.00;;;;;;4865975;29;45053;-63
2022/10/13 15:55:42;;;;;;;2.13;1.85;;;23.30;47.00;;;;;;4868012;28;45707;-63
2022/10/13 15:58:08;;;;;;;2.65;1.90;;;23.20;47.00;;;;;;4857418;29;45637;-63